createdAt,value
2022-08-25T09:51:29.277Z,97384.59
2022-08-25T09:54:13.987Z,97380.00
2022-08-25T09:56:59.507Z,97375.25
2022-08-25T09:59:36.711Z,97367.09
2022-08-25T10:02:23.699Z,97363.16
2022-08-25T10:04:50.870Z,97362.38
2022-08-25T10:07:26.778Z,97366.28
2022-08-25T10:09:57.129Z,97358.31
2022-08-25T10:12:37.900Z,97349.97
2022-08-25T10:15:32.586Z,97350.97
2022-08-25T10:18:29.548Z,97344.88
2022-08-25T10:21:12.179Z,97341.50
2022-08-25T10:23:48.676Z,97347.28
2022-08-25T10:26:40.026Z,97343.03
2022-08-25T10:29:17.698Z,97348.75
2022-08-25T10:31:59.626Z,97343.00
2022-08-25T10:34:45.538Z,97340.50
2022-08-25T10:37:46.910Z,97330.72
2022-08-25T10:40:38.332Z,97326.94
2022-08-25T10:43:23.948Z,97327.34
2022-08-25T10:46:01.241Z,97326.69
2022-08-25T10:48:30.811Z,97326.69
2022-08-25T10:51:28.693Z,97320.53
2022-08-25T10:54:49.724Z,97324.22
2022-08-25T10:57:25.238Z,97318.75
2022-08-25T11:00:14.215Z,97303.31
2022-08-25T11:02:49.937Z,97314.69
2022-08-25T11:05:48.004Z,97310.47
2022-08-25T11:08:34.287Z,97302.03
2022-08-25T11:11:29.198Z,97304.97
2022-08-25T11:14:06.469Z,97301.38
2022-08-25T11:17:10.051Z,97296.81
2022-08-25T11:19:40.096Z,97298.56
2022-08-25T11:22:34.380Z,97294.34
2022-08-25T11:25:42.961Z,97285.72
2022-08-25T11:28:32.178Z,97292.22
2022-08-25T11:31:01.896Z,97280.88
2022-08-25T11:33:34.370Z,97281.47
2022-08-25T11:36:22.498Z,97273.91
2022-08-25T11:42:12.615Z,97260.75
2022-08-25T11:45:02.584Z,97256.91
2022-08-25T11:47:42.350Z,97259.78
2022-08-25T11:50:30.058Z,97253.41
2022-08-25T11:53:12.231Z,97259.66
2022-08-25T11:55:56.314Z,97250.41
2022-08-25T11:58:37.181Z,97245.34
2022-08-25T12:01:09.406Z,97241.72
2022-08-25T12:03:36.814Z,97228.50
2022-08-25T12:06:26.206Z,97238.19
2022-08-25T12:09:25.371Z,97237.19
2022-08-25T12:12:35.686Z,97236.75
2022-08-25T12:15:32.507Z,97241.66
2022-08-25T12:18:45.601Z,97238.13
2022-08-25T12:21:29.950Z,97229.06
2022-08-25T12:24:15.805Z,97235.84
2022-08-25T12:26:42.540Z,97231.16
2022-08-25T12:29:26.875Z,97230.41
2022-08-25T12:32:04.743Z,97231.38
2022-08-25T12:35:24.676Z,97234.34
2022-08-25T12:38:03.218Z,97219.75
2022-08-25T12:40:42.966Z,97225.84
2022-08-25T12:43:25.530Z,97227.66
2022-08-25T12:46:14.930Z,97215.38
2022-08-25T12:48:56.086Z,97221.13
2022-08-25T12:51:25.849Z,97230.63
2022-08-25T12:54:22.460Z,97228.50
2022-08-25T12:57:12.787Z,97222.44
2022-08-25T12:59:48.776Z,97217.00
2022-08-25T13:02:24.851Z,97219.78
2022-08-25T13:05:33.585Z,97205.19
2022-08-25T13:08:16.173Z,97210.63
2022-08-25T13:10:54.718Z,97200.94
2022-08-25T13:13:46.428Z,97211.25
2022-08-25T13:16:29.590Z,97206.06
2022-08-25T13:18:59.704Z,97209.59
2022-08-25T13:21:39.028Z,97206.72
2022-08-25T13:28:28.885Z,97202.97
2022-08-25T13:31:42.110Z,97202.34
2022-08-25T13:34:19.488Z,97207.75
2022-08-25T13:37:08.172Z,97205.91
2022-08-25T13:39:55.368Z,97203.28
2022-08-25T13:42:23.992Z,97198.69
2022-08-25T13:44:55.859Z,97197.66
2022-08-25T13:47:43.315Z,97211.34
2022-08-25T13:50:22.607Z,97200.53
2022-08-25T13:53:26.272Z,97201.66
2022-08-25T14:11:37.656Z,97189.84
2022-08-25T14:14:32.394Z,97189.06
2022-08-25T14:17:28.295Z,97196.97
2022-08-25T14:19:57.474Z,97184.47
2022-08-25T14:22:24.281Z,97177.22
2022-08-25T14:24:53.785Z,97192.22
2022-08-25T14:28:16.479Z,97189.63
2022-08-25T14:30:51.891Z,97187.97
2022-08-25T14:33:21.545Z,97181.25
2022-08-25T14:35:51.647Z,97182.84
2022-08-25T14:38:21.397Z,97179.25
2022-08-25T14:40:50.170Z,97179.66
2022-08-25T14:43:17.748Z,97180.09
2022-08-25T14:45:49.035Z,97180.09
2022-08-25T14:48:29.656Z,97177.69
2022-08-25T14:50:58.897Z,97179.72
2022-08-25T14:53:27.556Z,97182.19
2022-08-25T14:55:59.094Z,97182.19
2022-08-25T14:58:27.214Z,97180.88
2022-08-25T15:00:55.505Z,97181.69
2022-08-25T15:03:32.343Z,97182.16
2022-08-25T15:06:01.347Z,97172.34
2022-08-25T15:08:48.030Z,97172.13
2022-08-25T15:11:15.504Z,97174.09
2022-08-25T15:13:55.374Z,97180.00
2022-08-25T15:16:33.843Z,97170.78
2022-08-25T15:19:06.617Z,97177.31
2022-08-25T15:21:34.450Z,97168.28
2022-08-25T15:24:02.729Z,97167.38
2022-08-25T15:26:29.367Z,97176.19
2022-08-25T15:28:56.054Z,97170.78
2022-08-25T15:31:23.646Z,97168.56
2022-08-25T15:33:51.427Z,97174.72
2022-08-25T15:36:24.669Z,97172.34
2022-08-25T15:38:51.991Z,97174.78
2022-08-25T15:41:19.478Z,97176.28
2022-08-25T15:43:46.253Z,97180.56
2022-08-25T15:46:19.691Z,97173.53
2022-08-25T15:48:47.458Z,97175.00
2022-08-25T15:51:16.246Z,97166.22
2022-08-25T15:53:43.620Z,97168.97
2022-08-25T15:56:14.176Z,97169.13
2022-08-25T15:58:49.801Z,97164.88
2022-08-25T16:01:19.721Z,97170.09
2022-08-25T16:03:46.608Z,97168.03
2022-08-25T16:06:13.665Z,97169.03
2022-08-25T16:08:40.349Z,97173.41
2022-08-25T16:11:26.660Z,97173.31
2022-08-25T16:13:54.850Z,97173.69
2022-08-25T16:16:27.004Z,97170.41
2022-08-25T16:18:54.384Z,97168.09
2022-08-25T16:21:30.031Z,97172.94
2022-08-25T16:24:00.727Z,97172.03
2022-08-25T16:26:30.127Z,97178.38
2022-08-25T16:28:57.825Z,97182.06
2022-08-25T16:31:31.065Z,97181.81
2022-08-25T16:34:01.917Z,97187.72
2022-08-25T16:36:29.635Z,97191.00
2022-08-25T16:38:57.777Z,97188.19
2022-08-25T16:41:34.319Z,97193.19
2022-08-25T16:44:04.339Z,97196.88
2022-08-25T16:46:41.457Z,97193.28
2022-08-25T16:49:09.580Z,97197.09
2022-08-25T16:51:38.548Z,97195.91
2022-08-25T16:54:25.206Z,97196.47
2022-08-25T16:56:55.090Z,97200.41
2022-08-25T16:59:23.348Z,97200.06
2022-08-25T17:01:58.398Z,97204.75
2022-08-25T17:04:29.589Z,97212.66
2022-08-25T17:07:00.528Z,97209.16
2022-08-25T17:09:29.735Z,97218.47
2022-08-25T17:12:02.256Z,97220.25
2022-08-25T17:14:29.009Z,97216.53
2022-08-25T17:16:55.818Z,97224.16
2022-08-25T17:19:26.370Z,97229.94
2022-08-25T17:21:54.901Z,97231.50
2022-08-25T17:24:22.381Z,97237.00
2022-08-25T17:26:56.573Z,97238.50
2022-08-25T17:29:26.607Z,97239.88
2022-08-25T17:31:57.147Z,97247.97
2022-08-25T17:34:24.940Z,97244.81
2022-08-25T17:36:56.633Z,97252.78
2022-08-25T17:39:24.392Z,97256.53
2022-08-25T17:41:52.480Z,97259.56
2022-08-25T17:44:19.955Z,97263.97
2022-08-25T17:46:48.247Z,97270.88
2022-08-25T17:49:17.203Z,97282.38
2022-08-25T17:51:44.038Z,97288.63
2022-08-25T17:54:12.631Z,97283.41
2022-08-25T17:56:39.915Z,97292.19
2022-08-25T17:59:07.040Z,97291.31
2022-08-25T18:01:40.537Z,97286.41
2022-08-25T18:04:17.514Z,97296.16
2022-08-25T18:06:45.852Z,97295.38
2022-08-25T18:09:13.170Z,97296.50
2022-08-25T18:11:39.816Z,97300.97
2022-08-25T18:14:11.511Z,97297.09
2022-08-25T18:16:38.969Z,97293.88
2022-08-25T18:19:06.605Z,97290.66
2022-08-25T18:21:36.937Z,97289.97
2022-08-25T18:24:04.638Z,97295.34
2022-08-25T18:26:34.180Z,97278.84
2022-08-25T18:29:01.279Z,97279.97
2022-08-25T18:31:28.573Z,97280.81
2022-08-25T18:34:02.532Z,97284.34
2022-08-25T18:36:39.763Z,97278.25
2022-08-25T18:39:32.867Z,97287.53
2022-08-25T18:42:03.621Z,97282.75
2022-08-25T18:44:31.545Z,97282.94
2022-08-25T18:46:59.675Z,97275.47
2022-08-25T18:49:34.452Z,97285.53
2022-08-25T18:52:01.164Z,97286.09
2022-08-25T18:54:40.180Z,97285.75
2022-08-25T18:57:08.172Z,97291.63
2022-08-25T18:59:39.643Z,97296.66
2022-08-25T19:02:12.737Z,97296.88
2022-08-25T19:04:42.898Z,97296.38
2022-08-25T19:07:12.254Z,97306.84
2022-08-25T19:09:39.586Z,97306.50
2022-08-25T19:14:38.659Z,97296.75
2022-08-25T19:17:08.237Z,97304.16
2022-08-25T19:19:35.046Z,97303.44
2022-08-25T19:22:02.411Z,97302.28
2022-08-25T19:24:31.592Z,97299.03
2022-08-25T19:27:02.303Z,97298.50
2022-08-25T19:29:30.437Z,97298.66
2022-08-25T19:34:51.604Z,97297.50
2022-08-25T19:37:18.539Z,97292.22
2022-08-25T19:39:52.904Z,97293.72
2022-08-25T19:42:35.098Z,97291.78
2022-08-25T19:45:07.819Z,97288.47
2022-08-25T19:48:00.554Z,97287.94
2022-08-25T19:53:16.928Z,97290.78
2022-08-25T19:55:43.595Z,97292.16
2022-08-25T19:58:11.558Z,97294.59
2022-08-25T20:00:40.449Z,97299.50
2022-08-25T20:03:08.977Z,97297.81
2022-08-25T20:05:38.504Z,97298.69
2022-08-25T20:08:06.147Z,97293.47
2022-08-25T20:10:39.451Z,97296.25
2022-08-25T20:13:14.286Z,97300.69
2022-08-25T20:15:42.199Z,97295.31
2022-08-25T20:18:09.473Z,97298.19
2022-08-25T20:20:36.561Z,97292.94
2022-08-25T20:23:30.442Z,97299.19
2022-08-25T20:25:57.154Z,97294.63
2022-08-25T20:28:24.704Z,97295.88
2022-08-25T20:30:51.411Z,97300.38
2022-08-25T20:33:22.542Z,97300.94
2022-08-25T20:35:49.902Z,97298.28
2022-08-25T20:38:20.042Z,97297.81
2022-08-25T20:40:47.204Z,97288.78
2022-08-25T20:43:15.474Z,97292.44
2022-08-25T20:45:43.112Z,97290.84
2022-08-25T20:48:12.413Z,97293.78
2022-08-25T20:50:39.954Z,97290.34
2022-08-25T20:53:10.178Z,97300.00
2022-08-25T20:55:44.348Z,97296.13
2022-08-25T20:58:12.770Z,97297.03
2022-08-25T21:00:45.943Z,97299.16
2022-08-25T21:03:12.925Z,97296.91
2022-08-25T21:05:41.072Z,97299.88
2022-08-25T21:08:08.712Z,97297.06
2022-08-25T21:10:35.937Z,97289.88
2022-08-25T21:13:02.633Z,97302.63
2022-08-25T21:15:30.050Z,97298.50
2022-08-25T21:17:57.828Z,97301.38
2022-08-25T21:20:25.607Z,97307.13
2022-08-25T21:22:53.288Z,97300.59
2022-08-25T21:25:20.595Z,97298.28
2022-08-25T21:27:48.070Z,97292.72
2022-08-25T21:30:16.592Z,97293.66
2022-08-25T21:32:52.970Z,97294.13
2022-08-25T21:35:20.445Z,97293.38
2022-08-25T21:37:53.239Z,97294.69
2022-08-25T21:40:21.895Z,97292.44
2022-08-25T21:42:49.122Z,97296.66
2022-08-25T21:45:16.659Z,97298.84
2022-08-25T21:47:47.907Z,97294.22
2022-08-25T21:50:14.756Z,97302.66
2022-08-25T21:52:42.238Z,97292.53
2022-08-25T21:55:13.610Z,97298.78
2022-08-25T21:57:43.802Z,97301.56
2022-08-25T22:00:13.198Z,97298.66
2022-08-25T22:02:40.052Z,97299.03
2022-08-25T22:05:11.630Z,97302.16
2022-08-25T22:07:41.726Z,97294.47
2022-08-25T22:10:12.777Z,97295.47
2022-08-25T22:12:44.969Z,97294.28
2022-08-25T22:15:13.625Z,97297.69
2022-08-25T22:17:40.720Z,97298.22
2022-08-25T22:20:08.536Z,97290.56
2022-08-25T22:22:36.185Z,97282.53
2022-08-25T22:25:03.928Z,97287.28
2022-08-25T22:27:32.984Z,97292.84
2022-08-25T22:30:00.808Z,97286.56
2022-08-25T22:32:27.619Z,97282.53
2022-08-25T22:34:54.283Z,97282.78
2022-08-25T22:37:20.943Z,97284.69
2022-08-25T22:39:50.895Z,97274.66
2022-08-25T22:42:20.152Z,97273.19
2022-08-25T22:44:53.971Z,97273.06
2022-08-25T22:47:20.912Z,97282.53
2022-08-25T22:49:47.637Z,97270.53
2022-08-25T22:52:15.141Z,97277.31
2022-08-25T22:54:41.990Z,97270.66
2022-08-25T22:57:09.784Z,97271.25
2022-08-25T22:59:37.092Z,97268.00
2022-08-25T23:02:05.505Z,97261.06
2022-08-25T23:04:33.590Z,97276.34
2022-08-25T23:07:00.309Z,97262.97
2022-08-25T23:09:26.964Z,97268.69
2022-08-25T23:11:54.012Z,97258.72
2022-08-25T23:14:20.866Z,97266.34
2022-08-25T23:16:48.626Z,97261.47
2022-08-25T23:19:16.720Z,97254.47
2022-08-25T23:22:03.270Z,97258.63
2022-08-25T23:24:31.707Z,97263.41
2022-08-25T23:27:00.598Z,97261.81
2022-08-25T23:29:28.425Z,97254.75
2022-08-25T23:31:56.768Z,97250.91
2022-08-25T23:34:24.224Z,97246.97
2022-08-25T23:36:51.497Z,97249.31
2022-08-25T23:39:18.782Z,97250.16
2022-08-25T23:41:48.885Z,97250.53
2022-08-25T23:44:17.531Z,97251.13
2022-08-25T23:46:47.134Z,97249.53
2022-08-25T23:49:20.096Z,97245.28
2022-08-25T23:51:52.893Z,97246.47
2022-08-25T23:54:21.197Z,97250.78
2022-08-25T23:56:52.359Z,97246.81
2022-08-25T23:59:24.629Z,97251.94
